Time;durP1;ratioP1;P1;durP2;ratioP2;P2;SDS_P1;SDS_P2;PMS_P1;PMS_P2;Temp;Humidity;BMP_temperature;BMP_pressure;BME280_temperature;BME280_humidity;BME280_pressure;Samples;Min_cycle;Max_cycle;Signal;HPM_P1;HPM_P2
2021/01/14 00:01:07;;;;;;;13.50;8.53;;;;;;;;;;750814;183;1772219;-69
2021/01/14 00:03:33;;;;;;;14.63;7.90;;;;;;;;;;750536;181;923488;-69
2021/01/14 00:05:59;;;;;;;16.07;7.83;;;;;;;;;;751458;183;920602;-70
2021/01/14 00:08:25;;;;;;;16.40;8.90;;;;;;;;;;762470;183;916915;-70
2021/01/14 00:10:51;;;;;;;12.80;9.10;;;;;;;;;;753261;182;1021392;-70
2021/01/14 00:13:16;;;;;;;13.35;8.48;;;;;;;;;;758008;184;975812;-69
2021/01/14 00:15:42;;;;;;;14.53;7.80;;;;;;;;;;761337;183;919261;-70
2021/01/14 00:18:08;;;;;;;11.53;8.77;;;;;;;;;;752771;184;918828;-71
2021/01/14 00:20:34;;;;;;;14.70;8.10;;;;;;;;;;752948;185;918817;-69
2021/01/14 00:23:00;;;;;;;15.67;7.50;;;;;;;;;;757886;184;919471;-70
2021/01/14 00:25:26;;;;;;;12.33;7.13;;;;;;;;;;755534;183;927895;-69
2021/01/14 00:27:51;;;;;;;14.63;7.10;;;;;;;;;;752405;183;923962;-69
2021/01/14 00:30:18;;;;;;;13.62;6.12;;;;;;;;;;753406;184;919937;-70
2021/01/14 00:32:44;;;;;;;15.53;7.80;;;;;;;;;;754729;183;925844;-69
2021/01/14 00:35:10;;;;;;;11.55;6.90;;;;;;;;;;748382;183;914731;-69
2021/01/14 00:40:12;;;;;;;16.87;7.70;;;;;;;;;;758338;183;821035;-70
2021/01/14 00:42:38;;;;;;;10.70;7.33;;;;;;;;;;763945;181;917527;-70
2021/01/14 00:45:05;;;;;;;12.68;7.05;;;;;;;;;;756602;182;914818;-70
2021/01/14 00:47:34;;;;;;;15.23;7.03;;;;;;;;;;753390;184;916130;-69
2021/01/14 00:50:00;;;;;;;13.30;8.10;;;;;;;;;;763495;183;915597;-71
2021/01/14 00:52:26;;;;;;;11.17;7.03;;;;;;;;;;752883;183;919130;-70
2021/01/14 00:54:52;;;;;;;17.20;7.10;;;;;;;;;;757655;183;919744;-70
2021/01/14 00:57:17;;;;;;;13.17;7.20;;;;;;;;;;755528;184;919266;-71
2021/01/14 00:59:43;;;;;;;9.23;6.80;;;;;;;;;;755118;183;918848;-70
2021/01/14 01:02:09;;;;;;;10.30;6.97;;;;;;;;;;747680;182;1365379;-71
2021/01/14 01:04:35;;;;;;;9.93;6.50;;;;;;;;;;751954;184;919040;-71
2021/01/14 01:07:01;;;;;;;10.00;6.70;;;;;;;;;;763525;181;904105;-70
2021/01/14 01:09:27;;;;;;;14.33;7.80;;;;;;;;;;753677;183;919082;-71
2021/01/14 01:11:52;;;;;;;13.70;7.43;;;;;;;;;;746177;186;918196;-71
2021/01/14 01:14:18;;;;;;;11.88;8.63;;;;;;;;;;759505;184;917568;-69
2021/01/14 01:16:44;;;;;;;12.73;8.57;;;;;;;;;;754822;183;919113;-74
2021/01/14 01:19:10;;;;;;;15.20;8.07;;;;;;;;;;756228;183;919421;-71
2021/01/14 01:21:36;;;;;;;16.77;8.50;;;;;;;;;;756431;183;919003;-70
2021/01/14 01:24:02;;;;;;;17.80;7.30;;;;;;;;;;749436;183;1635769;-70
2021/01/14 01:26:28;;;;;;;21.10;7.37;;;;;;;;;;754994;183;918810;-70
2021/01/14 01:28:54;;;;;;;13.35;8.18;;;;;;;;;;757068;183;991154;-70
2021/01/14 01:31:20;;;;;;;13.03;6.90;;;;;;;;;;764039;183;919411;-71
2021/01/14 01:33:46;;;;;;;13.48;7.75;;;;;;;;;;753179;181;918559;-71
2021/01/14 01:36:12;;;;;;;17.37;8.60;;;;;;;;;;751263;184;918593;-70
2021/01/14 01:38:37;;;;;;;15.50;7.87;;;;;;;;;;755759;183;919728;-69
2021/01/14 01:41:03;;;;;;;13.40;9.20;;;;;;;;;;755393;183;920085;-70
2021/01/14 01:43:29;;;;;;;18.07;8.20;;;;;;;;;;750321;183;916247;-70
2021/01/14 01:45:55;;;;;;;16.63;8.53;;;;;;;;;;761061;183;915422;-70
2021/01/14 01:48:21;;;;;;;12.55;7.95;;;;;;;;;;748977;183;915678;-70
2021/01/14 01:50:47;;;;;;;12.00;7.83;;;;;;;;;;754019;183;919364;-70
2021/01/14 01:53:12;;;;;;;22.13;8.83;;;;;;;;;;759594;183;919789;-70
2021/01/14 01:55:38;;;;;;;12.67;7.20;;;;;;;;;;755376;183;919192;-72
2021/01/14 01:58:04;;;;;;;13.97;8.73;;;;;;;;;;757044;183;918599;-70
2021/01/14 02:00:30;;;;;;;12.20;7.40;;;;;;;;;;752455;184;918392;-70
2021/01/14 02:02:56;;;;;;;14.50;7.53;;;;;;;;;;767581;181;918778;-70
2021/01/14 02:05:22;;;;;;;9.63;6.57;;;;;;;;;;752454;182;919089;-71
2021/01/14 02:08:04;;;;;;;15.60;7.87;;;;;;;;;;756961;184;918368;-72
2021/01/14 02:10:29;;;;;;;21.87;10.37;;;;;;;;;;754386;182;918938;-70
2021/01/14 02:13:01;;;;;;;15.47;8.30;;;;;;;;;;761530;182;918628;-70
2021/01/14 02:15:27;;;;;;;15.30;7.70;;;;;;;;;;752961;184;918503;-71
2021/01/14 02:17:53;;;;;;;14.90;8.37;;;;;;;;;;756850;184;921568;-71
2021/01/14 02:20:19;;;;;;;11.03;7.70;;;;;;;;;;754174;184;919584;-71
2021/01/14 02:22:45;;;;;;;10.10;8.13;;;;;;;;;;754941;184;918732;-73
2021/01/14 02:25:12;;;;;;;12.30;7.53;;;;;;;;;;751058;184;918930;-72
2021/01/14 02:27:37;;;;;;;12.80;7.70;;;;;;;;;;754852;183;918454;-72
2021/01/14 02:30:04;;;;;;;13.13;7.93;;;;;;;;;;759337;183;918485;-72
2021/01/14 02:32:30;;;;;;;18.50;7.53;;;;;;;;;;757585;184;922136;-73
2021/01/14 02:34:56;;;;;;;11.38;7.60;;;;;;;;;;749632;184;922051;-74
2021/01/14 02:37:21;;;;;;;12.23;7.67;;;;;;;;;;760273;184;918885;-75
2021/01/14 02:39:50;;;;;;;14.10;10.27;;;;;;;;;;756920;183;918626;-73
2021/01/14 02:42:16;;;;;;;17.70;11.53;;;;;;;;;;757204;183;918882;-74
2021/01/14 02:44:42;;;;;;;20.63;10.20;;;;;;;;;;756484;183;919250;-74
2021/01/14 02:47:07;;;;;;;15.13;9.27;;;;;;;;;;752225;185;919032;-74
2021/01/14 02:49:33;;;;;;;14.00;10.30;;;;;;;;;;754170;184;918420;-75
2021/01/14 02:52:00;;;;;;;16.20;9.90;;;;;;;;;;752405;183;948376;-74
2021/01/14 02:54:26;;;;;;;19.20;12.00;;;;;;;;;;756637;183;918221;-74
2021/01/14 02:56:51;;;;;;;24.95;10.90;;;;;;;;;;760646;183;918298;-73
2021/01/14 02:59:17;;;;;;;20.07;11.00;;;;;;;;;;762127;183;919438;-74
2021/01/14 03:01:43;;;;;;;17.33;11.27;;;;;;;;;;751400;184;918681;-74
2021/01/14 03:04:09;;;;;;;17.50;11.60;;;;;;;;;;750895;182;1737892;-75
2021/01/14 03:06:35;;;;;;;24.90;13.67;;;;;;;;;;751036;184;919295;-74
2021/01/14 03:09:01;;;;;;;26.12;13.57;;;;;;;;;;757839;183;918947;-73
2021/01/14 03:11:29;;;;;;;24.83;12.87;;;;;;;;;;753670;183;920142;-74
2021/01/14 03:13:55;;;;;;;16.10;11.50;;;;;;;;;;759949;184;920158;-75
2021/01/14 03:16:20;;;;;;;14.80;9.93;;;;;;;;;;753395;183;913072;-75
2021/01/14 03:18:48;;;;;;;24.67;12.07;;;;;;;;;;756483;183;920196;-74
2021/01/14 03:21:12;;;;;;;21.53;12.43;;;;;;;;;;754499;184;918674;-75
2021/01/14 03:23:38;;;;;;;21.10;13.10;;;;;;;;;;751475;183;915794;-75
2021/01/14 03:26:04;;;;;;;23.07;11.90;;;;;;;;;;758102;183;915463;-73
2021/01/14 03:28:30;;;;;;;18.87;11.77;;;;;;;;;;755887;183;918777;-75
2021/01/14 03:30:55;;;;;;;17.03;12.13;;;;;;;;;;757149;183;918977;-74
2021/01/14 03:33:22;;;;;;;18.20;12.07;;;;;;;;;;756598;184;908243;-74
2021/01/14 03:35:48;;;;;;;17.23;9.83;;;;;;;;;;757824;183;919034;-74
2021/01/14 03:38:14;;;;;;;18.07;10.50;;;;;;;;;;749888;184;1009808;-75
2021/01/14 03:40:39;;;;;;;18.87;10.50;;;;;;;;;;757183;182;918024;-74
2021/01/14 03:43:05;;;;;;;19.90;11.67;;;;;;;;;;758264;183;904703;-74
2021/01/14 03:45:31;;;;;;;17.70;10.60;;;;;;;;;;756930;183;1021941;-73
2021/01/14 03:47:57;;;;;;;16.17;13.23;;;;;;;;;;752689;183;919220;-74
2021/01/14 03:50:23;;;;;;;16.57;11.20;;;;;;;;;;757900;184;919280;-73
2021/01/14 03:52:50;;;;;;;18.33;10.77;;;;;;;;;;753657;183;919156;-74
2021/01/14 03:55:14;;;;;;;19.30;9.97;;;;;;;;;;754677;183;918902;-73
2021/01/14 03:57:40;;;;;;;18.13;10.37;;;;;;;;;;761899;183;919523;-74
2021/01/14 04:00:07;;;;;;;16.53;9.57;;;;;;;;;;754890;183;917758;-72
2021/01/14 04:02:33;;;;;;;18.53;10.43;;;;;;;;;;757817;183;917998;-73
2021/01/14 04:04:59;;;;;;;17.53;10.50;;;;;;;;;;762088;180;918463;-73
2021/01/14 04:07:24;;;;;;;13.90;9.10;;;;;;;;;;762953;182;918674;-75
2021/01/14 04:09:50;;;;;;;13.90;8.40;;;;;;;;;;754946;183;919391;-74
2021/01/14 04:12:16;;;;;;;13.60;9.68;;;;;;;;;;756258;183;919503;-74
2021/01/14 04:14:50;;;;;;;15.50;8.30;;;;;;;;;;758818;182;918149;-75
2021/01/14 04:17:09;;;;;;;22.13;8.07;;;;;;;;;;760637;183;918177;-74
2021/01/14 04:19:34;;;;;;;10.83;8.33;;;;;;;;;;756184;183;919803;-74
2021/01/14 04:21:59;;;;;;;12.93;8.00;;;;;;;;;;763578;183;919899;-74
2021/01/14 04:24:25;;;;;;;13.07;7.00;;;;;;;;;;758319;183;919177;-74
2021/01/14 04:26:51;;;;;;;11.12;6.35;;;;;;;;;;765913;183;934367;-73
2021/01/14 04:29:17;;;;;;;12.85;6.97;;;;;;;;;;756589;183;913358;-73
2021/01/14 04:31:43;;;;;;;9.43;5.93;;;;;;;;;;766747;182;915647;-74
2021/01/14 04:34:09;;;;;;;9.67;6.40;;;;;;;;;;758050;183;915408;-74
2021/01/14 04:36:35;;;;;;;7.40;5.93;;;;;;;;;;755985;183;918620;-75
2021/01/14 04:39:00;;;;;;;7.33;5.07;;;;;;;;;;763593;183;918849;-75
2021/01/14 04:41:26;;;;;;;5.13;3.90;;;;;;;;;;755307;183;918741;-75
2021/01/14 04:43:52;;;;;;;5.50;4.22;;;;;;;;;;757226;182;919313;-74
2021/01/14 04:46:18;;;;;;;7.23;3.80;;;;;;;;;;761061;182;1369193;-75
2021/01/14 04:48:45;;;;;;;9.53;4.33;;;;;;;;;;761152;183;918081;-76
2021/01/14 04:51:13;;;;;;;8.37;4.37;;;;;;;;;;759221;182;919305;-76
2021/01/14 04:53:39;;;;;;;5.80;3.17;;;;;;;;;;761752;180;919295;-74
2021/01/14 04:56:06;;;;;;;6.60;3.63;;;;;;;;;;761044;182;815826;-75
2021/01/14 04:58:31;;;;;;;7.43;4.05;;;;;;;;;;758060;182;918485;-76
2021/01/14 05:00:57;;;;;;;5.40;3.27;;;;;;;;;;754795;182;918301;-76
2021/01/14 05:03:22;;;;;;;4.80;3.60;;;;;;;;;;762869;183;918285;-74
2021/01/14 05:05:48;;;;;;;3.90;3.10;;;;;;;;;;759490;183;914391;-76
2021/01/14 05:08:15;;;;;;;3.90;2.63;;;;;;;;;;764044;183;812703;-76
2021/01/14 05:10:40;;;;;;;4.83;3.20;;;;;;;;;;766953;183;629838;-75
2021/01/14 05:13:07;;;;;;;3.63;3.10;;;;;;;;;;761607;183;909472;-76
2021/01/14 05:15:32;;;;;;;4.20;3.30;;;;;;;;;;767434;182;919702;-75
2021/01/14 05:17:58;;;;;;;4.47;2.73;;;;;;;;;;760744;183;918303;-75
2021/01/14 05:20:23;;;;;;;3.87;2.70;;;;;;;;;;755893;183;927170;-74
2021/01/14 05:22:49;;;;;;;5.33;3.20;;;;;;;;;;754818;183;918906;-74
2021/01/14 05:25:15;;;;;;;3.77;3.20;;;;;;;;;;739970;186;915899;-74
2021/01/14 05:27:41;;;;;;;3.20;2.20;;;;;;;;;;741359;186;918915;-74
2021/01/14 05:30:07;;;;;;;3.90;2.60;;;;;;;;;;739117;186;920098;-75
2021/01/14 05:32:34;;;;;;;2.77;2.33;;;;;;;;;;737193;186;925919;-75
2021/01/14 05:35:00;;;;;;;7.10;2.78;;;;;;;;;;743229;184;918970;-75
2021/01/14 05:37:26;;;;;;;6.65;2.70;;;;;;;;;;739576;187;916747;-75
2021/01/14 05:39:52;;;;;;;3.20;2.00;;;;;;;;;;761679;183;919051;-75
2021/01/14 05:42:19;;;;;;;11.33;5.73;;;;;;;;;;764607;183;918336;-74
2021/01/14 05:44:44;;;;;;;4.80;2.80;;;;;;;;;;759159;183;922311;-75
2021/01/14 05:47:15;;;;;;;6.00;3.33;;;;;;;;;;761575;182;920697;-74
2021/01/14 05:49:41;;;;;;;5.87;2.70;;;;;;;;;;758273;182;918199;-77
2021/01/14 05:52:07;;;;;;;4.87;3.10;;;;;;;;;;759016;183;918998;-74
2021/01/14 05:54:33;;;;;;;4.13;3.17;;;;;;;;;;744494;186;1119165;-74
2021/01/14 05:56:58;;;;;;;7.00;3.50;;;;;;;;;;760450;183;928966;-75
2021/01/14 05:59:33;;;;;;;4.30;2.80;;;;;;;;;;759141;183;919553;-75
2021/01/14 06:01:59;;;;;;;3.60;2.30;;;;;;;;;;761007;182;919357;-75
2021/01/14 06:04:25;;;;;;;3.47;2.37;;;;;;;;;;741119;183;918599;-73
2021/01/14 06:06:51;;;;;;;3.73;2.60;;;;;;;;;;741411;184;915449;-75
2021/01/14 06:09:16;;;;;;;4.10;3.00;;;;;;;;;;742146;184;918926;-74
2021/01/14 06:11:42;;;;;;;4.00;3.00;;;;;;;;;;741986;187;918300;-76
2021/01/14 06:14:23;;;;;;;5.50;2.70;;;;;;;;;;737212;184;1343016;-75
2021/01/14 06:16:49;;;;;;;7.37;3.10;;;;;;;;;;737805;186;919344;-75
2021/01/14 06:19:15;;;;;;;8.37;4.30;;;;;;;;;;741671;185;918572;-75
2021/01/14 06:21:41;;;;;;;7.43;4.17;;;;;;;;;;739027;185;918672;-75
2021/01/14 06:24:08;;;;;;;9.27;3.73;;;;;;;;;;735124;185;919376;-75
2021/01/14 06:26:34;;;;;;;4.60;3.13;;;;;;;;;;737458;185;920138;-75
2021/01/14 06:29:00;;;;;;;5.30;4.10;;;;;;;;;;752456;183;803525;-75
2021/01/14 06:31:26;;;;;;;7.10;3.40;;;;;;;;;;761308;183;919154;-75
2021/01/14 06:33:52;;;;;;;7.30;3.80;;;;;;;;;;763197;182;923657;-75
2021/01/14 06:36:18;;;;;;;7.70;3.17;;;;;;;;;;764457;183;924731;-76
2021/01/14 06:38:46;;;;;;;3.67;2.43;;;;;;;;;;757644;183;917615;-76
2021/01/14 06:41:16;;;;;;;10.80;3.57;;;;;;;;;;755058;183;917983;-75
2021/01/14 06:43:42;;;;;;;6.30;4.27;;;;;;;;;;754998;183;921795;-75
2021/01/14 06:46:07;;;;;;;8.80;4.63;;;;;;;;;;765167;183;918827;-75
2021/01/14 06:48:33;;;;;;;17.58;6.87;;;;;;;;;;757613;183;914783;-76
2021/01/14 06:50:59;;;;;;;16.67;6.67;;;;;;;;;;759603;183;915907;-73
2021/01/14 06:53:26;;;;;;;16.63;7.53;;;;;;;;;;764983;183;917749;-76
2021/01/14 06:55:51;;;;;;;13.47;5.77;;;;;;;;;;752309;183;926123;-75
2021/01/14 06:58:17;;;;;;;12.07;4.73;;;;;;;;;;756088;183;928484;-76
2021/01/14 07:00:45;;;;;;;11.30;6.17;;;;;;;;;;766034;183;905477;-74
2021/01/14 07:03:27;;;;;;;7.70;4.50;;;;;;;;;;767791;183;915669;-76
2021/01/14 07:06:08;;;;;;;6.90;4.03;;;;;;;;;;760159;183;916067;-75
2021/01/14 07:08:55;;;;;;;6.90;3.37;;;;;;;;;;757291;183;919055;-74
2021/01/14 07:11:21;;;;;;;9.93;5.00;;;;;;;;;;747644;184;919308;-74
2021/01/14 07:13:49;;;;;;;9.97;4.43;;;;;;;;;;758725;183;918581;-74
2021/01/14 07:16:16;;;;;;;10.75;5.37;;;;;;;;;;737238;186;925736;-74
2021/01/14 07:18:43;;;;;;;13.07;7.53;;;;;;;;;;765863;182;919097;-74
2021/01/14 07:21:11;;;;;;;10.40;6.93;;;;;;;;;;758650;182;918314;-74
2021/01/14 07:23:37;;;;;;;12.83;7.30;;;;;;;;;;758298;183;919167;-75
2021/01/14 07:26:03;;;;;;;11.43;6.07;;;;;;;;;;760795;183;918612;-74
2021/01/14 07:28:29;;;;;;;11.03;5.57;;;;;;;;;;760108;183;918667;-75
2021/01/14 07:30:55;;;;;;;7.30;6.10;;;;;;;;;;742577;185;921327;-74
2021/01/14 07:33:26;;;;;;;13.07;6.83;;;;;;;;;;757427;183;919237;-74
2021/01/14 07:35:52;;;;;;;11.13;6.43;;;;;;;;;;762732;183;917790;-74
2021/01/14 07:38:17;;;;;;;10.13;6.83;;;;;;;;;;753814;183;917364;-74
2021/01/14 07:40:43;;;;;;;11.73;6.60;;;;;;;;;;759685;183;917210;-73
2021/01/14 07:43:09;;;;;;;6.73;5.23;;;;;;;;;;763270;183;919684;-73
2021/01/14 07:45:35;;;;;;;9.43;5.57;;;;;;;;;;759806;183;919475;-74
2021/01/14 07:48:07;;;;;;;9.50;6.50;;;;;;;;;;758156;180;943284;-73
2021/01/14 07:50:33;;;;;;;11.37;6.30;;;;;;;;;;756727;183;923547;-73
2021/01/14 07:52:58;;;;;;;9.77;6.57;;;;;;;;;;758920;181;921532;-74
2021/01/14 07:55:24;;;;;;;8.35;5.93;;;;;;;;;;755108;183;924604;-73
2021/01/14 07:58:05;;;;;;;14.37;6.13;;;;;;;;;;754463;183;918897;-74
2021/01/14 08:00:31;;;;;;;9.40;6.80;;;;;;;;;;755414;183;918858;-73
2021/01/14 08:03:02;;;;;;;11.30;7.47;;;;;;;;;;759575;183;918171;-72
2021/01/14 08:05:34;;;;;;;11.70;7.47;;;;;;;;;;765245;183;915332;-74
2021/01/14 08:08:06;;;;;;;10.30;6.77;;;;;;;;;;753488;183;919053;-73
2021/01/14 08:10:31;;;;;;;13.95;5.93;;;;;;;;;;756271;183;919118;-73
2021/01/14 08:12:57;;;;;;;9.77;5.17;;;;;;;;;;766237;181;917203;-73
2021/01/14 08:15:29;;;;;;;10.98;5.12;;;;;;;;;;764344;182;920336;-73
2021/01/14 08:17:55;;;;;;;6.53;4.47;;;;;;;;;;755395;183;917969;-72
2021/01/14 08:20:21;;;;;;;5.10;4.50;;;;;;;;;;757219;183;919234;-73
2021/01/14 08:22:47;;;;;;;5.53;4.60;;;;;;;;;;766152;181;618355;-73
2021/01/14 08:25:13;;;;;;;9.70;4.10;;;;;;;;;;754718;182;919278;-73
2021/01/14 08:27:39;;;;;;;7.43;3.97;;;;;;;;;;758883;182;918922;-73
2021/01/14 08:30:05;;;;;;;7.57;3.97;;;;;;;;;;764333;182;918068;-74
2021/01/14 08:32:37;;;;;;;9.50;3.10;;;;;;;;;;763415;182;918188;-73
2021/01/14 08:35:03;;;;;;;7.63;3.80;;;;;;;;;;758776;182;920310;-72
2021/01/14 08:37:29;;;;;;;4.40;3.20;;;;;;;;;;760133;183;918149;-72
2021/01/14 08:39:59;;;;;;;4.17;3.30;;;;;;;;;;760060;183;919022;-71
2021/01/14 08:42:30;;;;;;;6.40;4.20;;;;;;;;;;757661;183;921141;-71
2021/01/14 08:44:55;;;;;;;9.80;5.00;;;;;;;;;;760182;182;919054;-72
2021/01/14 08:47:21;;;;;;;11.47;6.73;;;;;;;;;;759321;183;919223;-72
2021/01/14 08:49:47;;;;;;;17.80;7.83;;;;;;;;;;753984;183;918908;-72
2021/01/14 08:52:12;;;;;;;11.70;6.12;;;;;;;;;;757829;183;918594;-72
2021/01/14 08:54:41;;;;;;;11.13;5.93;;;;;;;;;;755396;183;918816;-72
2021/01/14 08:57:07;;;;;;;11.60;6.33;;;;;;;;;;763861;183;918698;-71
2021/01/14 08:59:34;;;;;;;13.00;5.83;;;;;;;;;;738122;186;920554;-70
2021/01/14 09:02:00;;;;;;;7.17;4.70;;;;;;;;;;736929;184;920510;-71
2021/01/14 09:04:26;;;;;;;7.93;4.83;;;;;;;;;;737864;188;917994;-71
2021/01/14 09:06:52;;;;;;;7.90;4.90;;;;;;;;;;741323;187;942866;-71
2021/01/14 09:09:18;;;;;;;9.83;5.23;;;;;;;;;;742495;187;919530;-70
2021/01/14 09:11:45;;;;;;;6.45;4.95;;;;;;;;;;741532;183;919125;-70
2021/01/14 09:14:10;;;;;;;8.93;5.97;;;;;;;;;;765998;183;822540;-70
2021/01/14 09:16:35;;;;;;;11.07;6.30;;;;;;;;;;736492;185;955429;-70
2021/01/14 09:19:01;;;;;;;10.13;6.20;;;;;;;;;;763082;181;928855;-70
2021/01/14 09:21:28;;;;;;;8.60;6.13;;;;;;;;;;759868;183;918541;-70
2021/01/14 09:23:53;;;;;;;9.00;5.73;;;;;;;;;;756743;184;918417;-71
2021/01/14 09:26:20;;;;;;;7.97;5.83;;;;;;;;;;755702;183;917550;-70
2021/01/14 09:28:46;;;;;;;9.37;5.73;;;;;;;;;;760274;184;918837;-70
2021/01/14 09:31:12;;;;;;;9.60;5.60;;;;;;;;;;761154;183;918471;-71
2021/01/14 09:33:39;;;;;;;10.43;5.37;;;;;;;;;;756830;183;918863;-71
2021/01/14 09:36:06;;;;;;;10.60;7.10;;;;;;;;;;752646;183;918885;-70
2021/01/14 09:38:37;;;;;;;21.73;8.07;;;;;;;;;;763593;181;918818;-71
2021/01/14 09:41:04;;;;;;;11.67;6.23;;;;;;;;;;741690;187;918937;-70
2021/01/14 09:43:30;;;;;;;9.57;6.80;;;;;;;;;;761046;182;918094;-70
2021/01/14 09:45:57;;;;;;;11.52;7.85;;;;;;;;;;759053;183;919762;-70
2021/01/14 09:48:22;;;;;;;9.30;7.20;;;;;;;;;;760917;179;915276;-71
2021/01/14 09:50:48;;;;;;;11.10;6.33;;;;;;;;;;743981;187;918594;-70
2021/01/14 09:53:14;;;;;;;9.77;6.50;;;;;;;;;;735815;186;919060;-70
2021/01/14 09:55:40;;;;;;;11.73;6.70;;;;;;;;;;743536;187;923671;-69
2021/01/14 09:58:06;;;;;;;9.23;6.30;;;;;;;;;;727440;190;1032179;-70
2021/01/14 10:00:31;;;;;;;13.50;7.37;;;;;;;;;;743553;186;922130;-70
2021/01/14 10:03:00;;;;;;;7.23;5.90;;;;;;;;;;742672;185;922809;-69
2021/01/14 10:05:25;;;;;;;18.67;9.83;;;;;;;;;;759858;183;918638;-69
2021/01/14 10:07:51;;;;;;;29.60;16.80;;;;;;;;;;736597;185;941363;-69
2021/01/14 10:10:17;;;;;;;13.57;9.50;;;;;;;;;;743371;185;918860;-69
2021/01/14 10:12:43;;;;;;;9.68;7.18;;;;;;;;;;739144;187;919473;-69
2021/01/14 10:15:08;;;;;;;11.87;8.60;;;;;;;;;;755850;183;918169;-70
2021/01/14 10:17:36;;;;;;;11.06;6.82;;;;;;;;;;749245;183;2770409;-69
2021/01/14 10:20:01;;;;;;;17.10;8.47;;;;;;;;;;764997;183;917806;-70
2021/01/14 10:22:27;;;;;;;12.33;7.97;;;;;;;;;;757052;183;918341;-71
2021/01/14 10:25:08;;;;;;;13.83;7.73;;;;;;;;;;753028;182;918880;-71
2021/01/14 10:27:34;;;;;;;13.37;9.17;;;;;;;;;;755735;183;919130;-69
2021/01/14 10:29:59;;;;;;;17.60;8.80;;;;;;;;;;766258;181;920052;-69
2021/01/14 10:32:25;;;;;;;16.02;9.30;;;;;;;;;;757247;183;928090;-69
2021/01/14 10:34:51;;;;;;;15.17;7.80;;;;;;;;;;755898;183;919542;-70
2021/01/14 10:37:23;;;;;;;15.80;7.50;;;;;;;;;;761013;183;918735;-69
2021/01/14 10:39:49;;;;;;;12.63;8.00;;;;;;;;;;762122;183;906873;-69
2021/01/14 10:42:20;;;;;;;12.50;8.30;;;;;;;;;;755295;183;1003111;-70
2021/01/14 10:44:49;;;;;;;14.93;8.37;;;;;;;;;;754355;182;918331;-70
2021/01/14 10:47:15;;;;;;;14.93;7.43;;;;;;;;;;759042;183;918920;-70
2021/01/14 10:49:41;;;;;;;11.47;7.63;;;;;;;;;;759055;182;918601;-69
2021/01/14 10:52:07;;;;;;;14.00;8.97;;;;;;;;;;754485;182;919087;-70
2021/01/14 10:54:33;;;;;;;16.33;9.37;;;;;;;;;;753916;182;918751;-68
2021/01/14 10:56:58;;;;;;;19.80;8.70;;;;;;;;;;765382;182;918967;-70
2021/01/14 10:59:24;;;;;;;15.30;8.40;;;;;;;;;;757188;181;939751;-70
2021/01/14 11:01:56;;;;;;;14.10;8.10;;;;;;;;;;758367;183;919219;-70
2021/01/14 11:04:25;;;;;;;18.16;8.12;;;;;;;;;;760819;183;2659149;-69
2021/01/14 11:06:50;;;;;;;17.00;8.80;;;;;;;;;;761615;183;945322;-70
2021/01/14 11:09:16;;;;;;;14.50;9.70;;;;;;;;;;760377;182;919194;-70
2021/01/14 11:11:42;;;;;;;17.07;8.80;;;;;;;;;;761043;182;918557;-69
2021/01/14 11:14:08;;;;;;;15.30;9.70;;;;;;;;;;763773;183;918990;-69
2021/01/14 11:16:34;;;;;;;13.90;8.97;;;;;;;;;;764542;182;919099;-69
2021/01/14 11:19:00;;;;;;;19.12;9.80;;;;;;;;;;762266;183;926559;-69
2021/01/14 11:21:28;;;;;;;21.03;10.10;;;;;;;;;;763747;183;921511;-68
2021/01/14 11:23:54;;;;;;;15.53;8.77;;;;;;;;;;760636;181;918609;-68
2021/01/14 11:26:20;;;;;;;17.83;10.30;;;;;;;;;;755165;183;923484;-68
2021/01/14 11:28:46;;;;;;;23.23;12.00;;;;;;;;;;760765;183;924453;-69
2021/01/14 11:31:12;;;;;;;18.53;10.13;;;;;;;;;;758620;181;918035;-69
2021/01/14 11:33:38;;;;;;;12.87;9.57;;;;;;;;;;762239;183;917915;-68
2021/01/14 11:36:04;;;;;;;17.40;9.30;;;;;;;;;;755078;183;919036;-68
2021/01/14 11:38:30;;;;;;;21.93;17.30;;;;;;;;;;761021;183;918856;-68
2021/01/14 11:40:56;;;;;;;9.20;5.07;;;;;;;;;;754197;183;922992;-69
2021/01/14 11:43:22;;;;;;;12.23;6.50;;;;;;;;;;757831;183;920138;-68
2021/01/14 11:45:48;;;;;;;9.27;5.80;;;;;;;;;;763236;183;1027249;-67
2021/01/14 11:48:14;;;;;;;6.50;3.43;;;;;;;;;;759615;183;733311;-68
2021/01/14 11:50:40;;;;;;;6.00;3.90;;;;;;;;;;759231;183;913739;-68
2021/01/14 11:53:06;;;;;;;7.87;5.07;;;;;;;;;;753111;183;915067;-67
2021/01/14 11:55:32;;;;;;;6.37;4.17;;;;;;;;;;759502;183;921543;-68
2021/01/14 11:57:57;;;;;;;5.00;3.27;;;;;;;;;;751284;183;925396;-67
2021/01/14 12:00:23;;;;;;;6.43;3.67;;;;;;;;;;757685;182;920647;-68
2021/01/14 12:02:49;;;;;;;6.27;5.00;;;;;;;;;;764835;182;920450;-68
2021/01/14 12:05:15;;;;;;;5.17;3.57;;;;;;;;;;740071;184;918524;-67
2021/01/14 12:07:41;;;;;;;6.40;3.83;;;;;;;;;;760088;182;918750;-68
2021/01/14 12:10:07;;;;;;;6.93;5.20;;;;;;;;;;762820;182;1019705;-69
2021/01/14 12:12:33;;;;;;;7.57;5.53;;;;;;;;;;755686;183;920099;-68
2021/01/14 12:14:59;;;;;;;4.10;2.72;;;;;;;;;;758912;180;926353;-67
2021/01/14 12:17:24;;;;;;;4.77;3.07;;;;;;;;;;759632;183;918886;-68
2021/01/14 12:19:50;;;;;;;6.05;3.97;;;;;;;;;;759186;183;913759;-68
2021/01/14 12:22:17;;;;;;;4.13;2.33;;;;;;;;;;755580;183;1018026;-68
2021/01/14 12:24:43;;;;;;;5.37;3.23;;;;;;;;;;755116;183;915081;-68
2021/01/14 12:27:09;;;;;;;3.10;2.20;;;;;;;;;;763366;183;923480;-69
2021/01/14 12:29:36;;;;;;;6.20;2.63;;;;;;;;;;756817;183;918046;-69
2021/01/14 12:32:03;;;;;;;3.40;2.30;;;;;;;;;;758854;183;918977;-68
2021/01/14 12:34:29;;;;;;;9.50;3.53;;;;;;;;;;760655;183;1063590;-69
2021/01/14 12:36:55;;;;;;;9.17;5.10;;;;;;;;;;757375;183;918651;-69
2021/01/14 12:39:21;;;;;;;6.30;3.43;;;;;;;;;;753085;183;960078;-68
2021/01/14 12:41:47;;;;;;;7.70;5.10;;;;;;;;;;761346;183;913093;-68
2021/01/14 12:44:13;;;;;;;7.63;3.87;;;;;;;;;;754054;183;919170;-67
2021/01/14 12:46:39;;;;;;;7.80;5.10;;;;;;;;;;756120;183;1023299;-68
2021/01/14 12:49:05;;;;;;;5.57;3.87;;;;;;;;;;753503;183;918524;-68
2021/01/14 12:51:30;;;;;;;6.37;4.17;;;;;;;;;;764614;183;921745;-68
2021/01/14 12:53:56;;;;;;;6.63;3.70;;;;;;;;;;749040;183;2183774;-68
2021/01/14 12:56:22;;;;;;;10.10;7.28;;;;;;;;;;757465;183;920587;-68
2021/01/14 12:58:48;;;;;;;11.20;4.80;;;;;;;;;;762284;180;918183;-68
2021/01/14 13:01:14;;;;;;;13.00;8.93;;;;;;;;;;764870;182;919076;-68
2021/01/14 13:03:40;;;;;;;11.80;6.87;;;;;;;;;;758122;183;918647;-68
2021/01/14 13:06:06;;;;;;;35.80;15.50;;;;;;;;;;761798;183;816086;-67
2021/01/14 13:08:31;;;;;;;68.37;40.80;;;;;;;;;;758507;183;918453;-68
2021/01/14 13:10:57;;;;;;;22.27;14.97;;;;;;;;;;754877;183;918877;-68
2021/01/14 13:13:23;;;;;;;18.57;10.67;;;;;;;;;;759330;182;918115;-68
2021/01/14 13:15:51;;;;;;;11.97;8.03;;;;;;;;;;756227;182;1172524;-68
2021/01/14 13:18:17;;;;;;;16.87;9.90;;;;;;;;;;758621;182;919846;-67
2021/01/14 13:20:42;;;;;;;16.20;10.97;;;;;;;;;;757383;182;918858;-68
2021/01/14 13:23:08;;;;;;;10.73;8.10;;;;;;;;;;765046;183;919147;-68
2021/01/14 13:25:39;;;;;;;13.30;8.47;;;;;;;;;;758734;183;920380;-67
2021/01/14 13:28:05;;;;;;;10.13;6.73;;;;;;;;;;759812;180;915589;-67
2021/01/14 13:30:30;;;;;;;17.50;9.00;;;;;;;;;;757444;183;919215;-66
2021/01/14 13:32:56;;;;;;;17.00;9.38;;;;;;;;;;763071;183;919089;-67
2021/01/14 13:35:22;;;;;;;15.67;9.63;;;;;;;;;;754634;183;918748;-67
2021/01/14 13:37:48;;;;;;;13.07;7.47;;;;;;;;;;761277;183;918952;-68
2021/01/14 13:40:14;;;;;;;15.67;8.87;;;;;;;;;;764351;183;918757;-67
2021/01/14 13:42:40;;;;;;;13.47;8.07;;;;;;;;;;756338;183;1117281;-67
2021/01/14 13:45:06;;;;;;;7.83;6.27;;;;;;;;;;755705;183;918436;-67
2021/01/14 13:47:32;;;;;;;10.13;6.13;;;;;;;;;;763614;183;918026;-67
2021/01/14 13:49:58;;;;;;;28.03;12.70;;;;;;;;;;763977;183;918604;-67
2021/01/14 13:52:24;;;;;;;17.07;10.00;;;;;;;;;;758069;183;919147;-67
2021/01/14 13:54:50;;;;;;;16.20;11.48;;;;;;;;;;763132;183;918285;-68
2021/01/14 13:57:16;;;;;;;8.70;5.80;;;;;;;;;;754234;183;935962;-67
2021/01/14 13:59:42;;;;;;;9.87;6.57;;;;;;;;;;756015;183;918182;-67
2021/01/14 14:02:07;;;;;;;9.57;6.77;;;;;;;;;;754542;183;916900;-67
2021/01/14 14:04:33;;;;;;;8.40;5.70;;;;;;;;;;763365;183;917810;-68
2021/01/14 14:06:59;;;;;;;9.27;6.27;;;;;;;;;;755196;183;943275;-67
2021/01/14 14:09:25;;;;;;;7.87;4.90;;;;;;;;;;756502;183;918490;-68
2021/01/14 14:11:51;;;;;;;10.43;5.80;;;;;;;;;;759453;183;916140;-67
2021/01/14 14:14:17;;;;;;;8.77;5.30;;;;;;;;;;759906;183;914766;-68
2021/01/14 14:16:43;;;;;;;7.03;4.67;;;;;;;;;;758162;183;921760;-67